createdAt,value
2018-08-09T00:00:42.163Z,28.01
2018-08-09T00:05:45.597Z,27.97
2018-08-09T00:10:49.067Z,27.97
2018-08-09T00:15:52.763Z,27.96
2018-08-09T00:20:56.592Z,27.95
2018-08-09T00:26:00.091Z,27.94
2018-08-09T00:31:03.605Z,27.92
2018-08-09T00:36:06.852Z,27.93
2018-08-09T00:41:10.295Z,27.90
2018-08-09T00:46:13.763Z,27.90
2018-08-09T00:51:17.193Z,27.88
2018-08-09T00:56:20.831Z,27.86
2018-08-09T01:01:24.363Z,27.86
2018-08-09T01:06:27.923Z,27.84
2018-08-09T01:11:31.432Z,27.83
2018-08-09T01:16:34.892Z,27.82
2018-08-09T01:21:38.372Z,27.82
2018-08-09T01:26:41.892Z,27.81
2018-08-09T01:31:45.509Z,27.80
2018-08-09T01:36:49.003Z,27.78
2018-08-09T01:42:03.594Z,27.77
2018-08-09T01:47:07.163Z,27.77
2018-08-09T01:52:10.764Z,27.76
2018-08-09T01:57:14.320Z,27.76
2018-08-09T02:02:17.974Z,27.74
2018-08-09T02:07:21.645Z,27.73
2018-08-09T02:12:25.068Z,27.73
2018-08-09T02:17:28.975Z,27.71
2018-08-09T02:22:32.510Z,27.71
2018-08-09T02:27:35.977Z,27.70
2018-08-09T02:32:39.497Z,27.70
2018-08-09T02:37:43.176Z,27.69
2018-08-09T02:42:46.621Z,27.68
2018-08-09T02:47:50.048Z,27.67
2018-08-09T02:52:53.873Z,27.65
2018-08-09T02:57:57.393Z,27.65
2018-08-09T03:03:00.889Z,27.64
2018-08-09T03:08:04.536Z,27.61
2018-08-09T03:13:08.236Z,27.60
2018-08-09T03:18:11.829Z,27.58
2018-08-09T03:23:15.373Z,27.55
2018-08-09T03:28:18.881Z,27.57
2018-08-09T03:33:22.398Z,27.55
2018-08-09T03:38:25.879Z,27.55
2018-08-09T03:43:29.293Z,27.54
2018-08-09T03:48:32.744Z,27.42
2018-08-09T03:53:36.229Z,27.29
2018-08-09T03:58:39.692Z,27.21
2018-08-09T04:03:43.110Z,27.22
2018-08-09T04:08:46.708Z,27.04
2018-08-09T04:13:50.411Z,26.73
2018-08-09T04:18:54.442Z,26.62
2018-08-09T04:23:57.863Z,26.60
2018-08-09T04:29:01.346Z,26.40
2018-08-09T04:34:04.879Z,26.41
2018-08-09T04:39:09.426Z,26.42
2018-08-09T04:44:13.044Z,26.38
2018-08-09T04:49:16.673Z,26.33
2018-08-09T04:54:20.193Z,26.28
2018-08-09T04:59:23.828Z,26.31
2018-08-09T05:04:27.291Z,26.26
2018-08-09T05:09:30.801Z,26.21
2018-08-09T05:14:34.255Z,26.20
2018-08-09T05:19:37.769Z,26.23
2018-08-09T05:24:41.275Z,26.31
2018-08-09T05:29:44.980Z,26.32
2018-08-09T05:34:48.678Z,26.33
2018-08-09T05:39:52.296Z,26.37
2018-08-09T05:44:55.784Z,26.33
2018-08-09T05:49:59.316Z,26.35
2018-08-09T05:55:03.093Z,26.46
2018-08-09T06:00:08.469Z,26.58
2018-08-09T06:05:11.957Z,26.72
2018-08-09T06:10:15.453Z,26.78
2018-08-09T06:15:18.968Z,26.75
2018-08-09T06:20:22.432Z,26.83
2018-08-09T06:25:25.867Z,26.87
2018-08-09T06:30:29.376Z,26.92
2018-08-09T06:35:32.796Z,26.95
2018-08-09T06:40:36.353Z,27.01
2018-08-09T06:45:39.813Z,27.06
2018-08-09T06:50:43.405Z,27.07
2018-08-09T06:55:47.012Z,27.10
2018-08-09T07:00:50.500Z,27.12
2018-08-09T07:05:53.980Z,27.19
2018-08-09T07:10:57.600Z,27.22
2018-08-09T07:16:01.109Z,27.26
2018-08-09T07:21:04.560Z,27.29
2018-08-09T07:26:09.200Z,27.31
2018-08-09T07:31:12.751Z,27.36
2018-08-09T07:36:16.275Z,27.40
2018-08-09T07:41:19.840Z,27.43
2018-08-09T07:46:23.300Z,27.44
2018-08-09T07:51:27.306Z,27.46
2018-08-09T07:56:31.033Z,27.48
2018-08-09T08:01:34.488Z,27.50
2018-08-09T08:06:38.083Z,27.53
2018-08-09T08:11:41.547Z,27.53
2018-08-09T08:16:45.096Z,27.55
2018-08-09T08:21:48.593Z,27.56
2018-08-09T08:26:52.119Z,27.58
2018-08-09T08:31:55.776Z,27.60
2018-08-09T08:36:59.233Z,27.61
2018-08-09T08:42:03.072Z,27.63
2018-08-09T08:47:06.756Z,27.63
2018-08-09T08:52:10.381Z,27.66
2018-08-09T08:57:13.847Z,27.66
2018-08-09T09:02:17.302Z,27.66
2018-08-09T09:07:20.807Z,27.70
2018-08-09T09:12:24.313Z,27.71
2018-08-09T09:17:27.815Z,27.73
2018-08-09T09:22:31.285Z,27.75
2018-08-09T09:27:34.836Z,27.74
2018-08-09T09:32:38.328Z,27.76
2018-08-09T09:37:42.286Z,27.77
2018-08-09T09:42:45.885Z,27.78
2018-08-09T09:47:49.375Z,27.79
2018-08-09T09:52:52.880Z,27.82
2018-08-09T09:57:56.630Z,27.82
2018-08-09T10:03:00.063Z,27.87
2018-08-09T10:08:03.560Z,27.88
2018-08-09T10:13:07.009Z,27.91
2018-08-09T10:18:10.571Z,27.93
2018-08-09T10:23:14.111Z,27.95
2018-08-09T10:28:17.807Z,27.94
2018-08-09T10:33:21.501Z,27.96
2018-08-09T10:38:25.393Z,27.99
2018-08-09T10:43:28.823Z,28.00
2018-08-09T10:48:32.247Z,28.03
2018-08-09T10:53:35.719Z,28.02
2018-08-09T10:58:40.072Z,28.05
2018-08-09T11:03:43.603Z,28.06
2018-08-09T11:08:47.096Z,28.04
2018-08-09T11:13:50.585Z,28.05
2018-08-09T11:18:54.044Z,28.06
2018-08-09T11:23:57.557Z,28.07
2018-08-09T11:29:01.141Z,27.97
2018-08-09T11:34:05.107Z,28.14
2018-08-09T11:39:11.417Z,28.11
2018-08-09T11:44:14.960Z,28.11
2018-08-09T11:49:18.727Z,28.11
2018-08-09T11:54:22.273Z,28.11
2018-08-09T11:59:26.242Z,28.10
2018-08-09T12:04:30.117Z,28.11
2018-08-09T12:09:33.978Z,28.15
2018-08-09T12:14:37.993Z,28.16
2018-08-09T12:19:41.929Z,28.15
2018-08-09T12:24:45.549Z,28.17
2018-08-09T12:29:49.295Z,28.18
2018-08-09T12:34:52.848Z,28.17
2018-08-09T12:39:56.594Z,28.17
2018-08-09T12:45:00.256Z,28.19
2018-08-09T12:50:05.420Z,28.23
2018-08-09T12:55:09.823Z,28.26
2018-08-09T13:00:14.539Z,28.32
2018-08-09T13:05:18.160Z,28.35
2018-08-09T13:10:21.968Z,28.40
2018-08-09T13:15:25.519Z,28.41
2018-08-09T13:20:29.121Z,28.40
2018-08-09T13:25:33.052Z,28.40
2018-08-09T13:30:36.615Z,28.41
2018-08-09T13:35:40.374Z,28.42
2018-08-09T13:40:43.902Z,28.42
2018-08-09T13:45:47.741Z,28.48
2018-08-09T13:50:51.308Z,28.50
2018-08-09T13:55:54.958Z,28.55
2018-08-09T14:00:58.811Z,28.56
2018-08-09T14:06:02.563Z,28.59
2018-08-09T14:11:06.304Z,28.61
2018-08-09T14:16:10.770Z,28.63
2018-08-09T14:21:14.570Z,28.65
2018-08-09T14:26:18.058Z,28.67
2018-08-09T14:31:21.630Z,28.69
2018-08-09T14:36:25.322Z,28.72
2018-08-09T14:41:30.894Z,28.72
2018-08-09T14:46:35.068Z,28.73
2018-08-09T14:51:38.758Z,28.76
2018-08-09T14:56:42.740Z,28.77
2018-08-09T15:01:46.674Z,28.79
2018-08-09T15:06:50.414Z,28.80
2018-08-09T15:11:54.056Z,28.82
2018-08-09T15:16:58.524Z,28.81
2018-08-09T15:22:02.180Z,28.79
2018-08-09T15:27:06.051Z,28.79
2018-08-09T15:32:09.752Z,28.78
2018-08-09T15:37:13.598Z,28.78
2018-08-09T15:42:17.471Z,28.74
2018-08-09T15:47:21.115Z,28.75
2018-08-09T15:52:25.100Z,28.76
2018-08-09T15:57:28.852Z,28.79
2018-08-09T16:02:33.567Z,28.81
2018-08-09T16:07:37.232Z,28.80
2018-08-09T16:12:41.268Z,28.81
2018-08-09T16:17:46.126Z,28.83
2018-08-09T16:22:49.709Z,28.83
2018-08-09T16:27:53.517Z,28.85
2018-08-09T16:32:57.456Z,28.87
2018-08-09T16:38:01.282Z,28.89
2018-08-09T16:43:05.357Z,28.86
2018-08-09T16:48:08.912Z,28.85
2018-08-09T16:53:12.726Z,28.84
2018-08-09T16:58:16.561Z,28.82
2018-08-09T17:03:20.351Z,28.87
2018-08-09T17:08:24.286Z,28.89
2018-08-09T17:13:28.745Z,28.91
2018-08-09T17:18:32.655Z,28.94
2018-08-09T17:23:36.295Z,28.93
2018-08-09T17:28:39.886Z,28.90
2018-08-09T17:33:43.533Z,28.90
2018-08-09T17:38:47.275Z,28.86
2018-08-09T17:43:51.680Z,28.85
2018-08-09T17:48:55.343Z,28.86
2018-08-09T17:53:59.228Z,28.84
2018-08-09T17:59:04.129Z,28.83
2018-08-09T18:04:07.932Z,28.82
2018-08-09T18:09:12.075Z,28.82
2018-08-09T18:14:17.123Z,28.82
2018-08-09T18:19:20.855Z,28.86
2018-08-09T18:24:25.476Z,28.87
2018-08-09T18:29:29.168Z,28.85
2018-08-09T18:34:33.267Z,28.77
2018-08-09T18:50:29.831Z,28.76
2018-08-09T18:55:34.391Z,28.77
2018-08-09T19:00:39.569Z,28.65
2018-08-09T19:05:44.850Z,28.56
2018-08-09T19:10:48.533Z,28.52
2018-08-09T19:15:54.408Z,28.51
2018-08-09T19:20:58.726Z,28.54
2018-08-09T19:26:02.924Z,28.57
2018-08-09T19:31:06.545Z,28.60
2018-08-09T19:36:11.150Z,28.53
2018-08-09T19:41:14.905Z,28.63
2018-08-09T19:46:18.589Z,28.62
2018-08-09T19:51:22.338Z,28.60
2018-08-09T19:56:26.466Z,28.56
2018-08-09T20:01:30.073Z,28.51
2018-08-09T20:06:33.634Z,28.53
2018-08-09T20:11:37.433Z,28.51
2018-08-09T20:16:41.027Z,28.48
2018-08-09T20:21:44.633Z,28.40
2018-08-09T20:26:49.355Z,28.38
2018-08-09T20:31:54.202Z,28.36
2018-08-09T20:36:58.540Z,28.35
2018-08-09T20:42:03.540Z,28.31
2018-08-09T20:47:07.010Z,28.28
2018-08-09T20:52:10.571Z,28.27
2018-08-09T20:57:14.129Z,28.23
2018-08-09T21:02:18.544Z,28.21
2018-08-09T21:07:22.119Z,28.18
2018-08-09T21:12:25.964Z,28.16
2018-08-09T21:17:29.864Z,28.13
2018-08-09T21:22:33.409Z,28.11
2018-08-09T21:27:37.120Z,28.11
2018-08-09T21:32:41.763Z,28.10
2018-08-09T21:37:46.071Z,28.10
2018-08-09T21:42:49.814Z,28.07
2018-08-09T21:47:53.308Z,28.05
2018-08-09T21:52:58.445Z,28.04
2018-08-09T21:58:02.280Z,28.02
2018-08-09T22:03:06.756Z,28.01
2018-08-09T22:09:18.524Z,28.02
2018-08-09T22:14:27.960Z,27.99
2018-08-09T22:19:36.780Z,27.97
2018-08-09T22:24:41.096Z,27.95
2018-08-09T22:29:44.590Z,27.93
2018-08-09T22:34:48.772Z,27.95
2018-08-09T22:39:52.654Z,27.92
2018-08-09T22:44:56.385Z,27.90
2018-08-09T22:49:59.848Z,27.86
2018-08-09T22:55:03.824Z,27.85
2018-08-09T23:00:14.192Z,27.84
2018-08-09T23:05:17.897Z,27.81
2018-08-09T23:10:21.536Z,27.83
2018-08-09T23:15:25.162Z,27.77
2018-08-09T23:20:28.685Z,27.78
2018-08-09T23:25:32.208Z,27.76
2018-08-09T23:30:35.734Z,27.74
2018-08-09T23:35:39.270Z,27.73
2018-08-09T23:40:42.857Z,27.72
2018-08-09T23:45:46.381Z,27.73
2018-08-09T23:50:49.864Z,27.71
2018-08-09T23:55:53.484Z,27.74
